createdAt,value
2023-04-03T00:00:35.521Z,451.00
2023-04-03T00:01:34.971Z,454.00
2023-04-03T00:02:35.033Z,456.00
2023-04-03T00:03:34.958Z,456.00
2023-04-03T00:04:35.023Z,453.00
2023-04-03T00:05:34.982Z,452.00
2023-04-03T00:06:34.992Z,450.00
2023-04-03T00:07:35.003Z,451.00
2023-04-03T00:08:35.005Z,450.00
2023-04-03T00:09:35.018Z,451.00
2023-04-03T00:10:35.249Z,452.00
2023-04-03T00:11:35.055Z,452.00
2023-04-03T00:12:35.103Z,450.00
2023-04-03T00:13:35.096Z,448.00
2023-04-03T00:14:35.106Z,448.00
2023-04-03T00:15:35.131Z,445.00
2023-04-03T00:16:35.209Z,448.00
2023-04-03T00:17:35.208Z,448.00
2023-04-03T00:18:35.179Z,449.00
2023-04-03T00:19:35.192Z,451.00
2023-04-03T00:20:35.562Z,451.00
2023-04-03T00:21:35.695Z,454.00
2023-04-03T00:22:35.244Z,456.00
2023-04-03T00:23:35.254Z,454.00
2023-04-03T00:24:35.269Z,453.00
2023-04-03T00:25:35.288Z,453.00
2023-04-03T00:26:35.700Z,450.00
2023-04-03T00:27:35.696Z,446.00
2023-04-03T00:28:35.718Z,448.00
2023-04-03T00:29:35.693Z,450.00
2023-04-03T00:30:35.866Z,451.00
2023-04-03T00:31:35.708Z,452.00
2023-04-03T00:32:35.738Z,452.00
2023-04-03T00:33:35.695Z,449.00
2023-04-03T00:34:35.700Z,449.00
2023-04-03T00:35:36.772Z,451.00
2023-04-03T00:36:35.736Z,450.00
2023-04-03T00:37:35.698Z,451.00
2023-04-03T00:38:35.702Z,449.00
2023-04-03T00:39:35.698Z,451.00
2023-04-03T00:40:35.960Z,451.00
2023-04-03T00:41:35.706Z,450.00
2023-04-03T00:42:35.708Z,453.00
2023-04-03T00:43:36.717Z,454.00
2023-04-03T00:44:35.732Z,451.00
2023-04-03T00:45:35.703Z,450.00
2023-04-03T00:46:35.741Z,451.00
2023-04-03T00:47:35.727Z,448.00
2023-04-03T00:48:35.710Z,447.00
2023-04-03T00:49:35.705Z,447.00
2023-04-03T00:50:35.955Z,448.00
2023-04-03T00:51:35.710Z,447.00
2023-04-03T00:52:35.728Z,445.00
2023-04-03T00:53:35.754Z,449.00
2023-04-03T00:54:35.755Z,449.00
2023-04-03T00:55:35.786Z,450.00
2023-04-03T00:56:35.805Z,451.00
2023-04-03T00:57:35.891Z,449.00
2023-04-03T00:58:35.840Z,450.00
2023-04-03T00:59:35.862Z,449.00
2023-04-03T01:00:36.235Z,449.00
2023-04-03T01:01:35.952Z,448.00
2023-04-03T01:02:35.911Z,446.00
2023-04-03T01:03:35.909Z,449.00
2023-04-03T01:04:36.100Z,449.00
2023-04-03T01:05:35.950Z,450.00
2023-04-03T01:06:35.963Z,452.00
2023-04-03T01:07:35.982Z,454.00
2023-04-03T01:08:35.999Z,455.00
2023-04-03T01:09:36.051Z,458.00
2023-04-03T01:10:36.271Z,458.00
2023-04-03T01:11:36.047Z,457.00
2023-04-03T01:12:36.059Z,453.00
2023-04-03T01:13:36.077Z,450.00
2023-04-03T01:14:36.098Z,450.00
2023-04-03T01:15:36.167Z,446.00
2023-04-03T01:16:36.188Z,445.00
2023-04-03T01:17:36.223Z,445.00
2023-04-03T01:18:36.168Z,446.00
2023-04-03T01:19:36.182Z,445.00
2023-04-03T01:20:37.476Z,445.00
2023-04-03T01:21:36.180Z,442.00
2023-04-03T01:22:36.185Z,443.00
2023-04-03T01:23:36.169Z,445.00
2023-04-03T01:24:36.158Z,445.00
2023-04-03T01:25:36.158Z,446.00
2023-04-03T01:26:36.144Z,446.00
2023-04-03T01:27:36.141Z,445.00
2023-04-03T01:28:36.144Z,446.00
2023-04-03T01:29:36.136Z,447.00
2023-04-03T01:30:36.250Z,449.00
2023-04-03T01:31:36.168Z,449.00
2023-04-03T01:32:36.145Z,448.00
2023-04-03T01:33:36.095Z,449.00
2023-04-03T01:34:36.089Z,452.00
2023-04-03T01:35:36.122Z,450.00
2023-04-03T01:36:36.071Z,450.00
2023-04-03T01:37:36.072Z,452.00
2023-04-03T01:38:36.072Z,452.00
2023-04-03T01:39:36.062Z,452.00
2023-04-03T01:40:36.271Z,450.00
2023-04-03T01:41:36.040Z,450.00
2023-04-03T01:42:36.041Z,448.00
2023-04-03T01:43:36.041Z,451.00
2023-04-03T01:44:36.044Z,450.00
2023-04-03T01:45:36.074Z,452.00
2023-04-03T01:46:36.011Z,450.00
2023-04-03T01:47:36.041Z,448.00
2023-04-03T01:48:36.043Z,449.00
2023-04-03T01:49:35.987Z,451.00
2023-04-03T01:50:36.152Z,454.00
2023-04-03T01:51:35.976Z,455.00
2023-04-03T01:52:35.961Z,453.00
2023-04-03T01:53:35.958Z,455.00
2023-04-03T01:54:35.953Z,453.00
2023-04-03T01:55:35.940Z,454.00
2023-04-03T01:56:35.930Z,449.00
2023-04-03T01:57:35.952Z,450.00
2023-04-03T01:58:35.926Z,452.00
2023-04-03T01:59:35.932Z,455.00
2023-04-03T02:00:36.047Z,455.00
2023-04-03T02:01:36.056Z,457.00
2023-04-03T02:02:35.906Z,459.00
2023-04-03T02:03:35.939Z,458.00
2023-04-03T02:04:35.898Z,458.00
2023-04-03T02:05:35.871Z,457.00
2023-04-03T02:06:35.895Z,454.00
2023-04-03T02:07:35.881Z,454.00
2023-04-03T02:08:35.888Z,455.00
2023-04-03T02:09:35.908Z,455.00
2023-04-03T02:10:36.284Z,457.00
2023-04-03T02:11:35.938Z,455.00
2023-04-03T02:12:35.968Z,451.00
2023-04-03T02:13:35.978Z,451.00
2023-04-03T02:14:36.003Z,449.00
2023-04-03T02:15:35.994Z,448.00
2023-04-03T02:16:36.025Z,448.00
2023-04-03T02:17:36.090Z,449.00
2023-04-03T02:18:36.040Z,445.00
2023-04-03T02:19:36.071Z,448.00
2023-04-03T02:20:36.395Z,444.00
2023-04-03T02:21:36.096Z,445.00
2023-04-03T02:22:36.118Z,443.00
2023-04-03T02:23:36.127Z,441.00
2023-04-03T02:24:36.158Z,442.00
2023-04-03T02:25:38.427Z,444.00
2023-04-03T02:26:36.173Z,444.00
2023-04-03T02:27:36.168Z,446.00
2023-04-03T02:28:36.156Z,444.00
2023-04-03T02:29:36.150Z,442.00
2023-04-03T02:30:36.457Z,442.00
2023-04-03T02:31:36.138Z,444.00
2023-04-03T02:32:36.137Z,444.00
2023-04-03T02:33:36.125Z,443.00
2023-04-03T02:34:36.118Z,443.00
2023-04-03T02:35:36.127Z,443.00
2023-04-03T02:36:36.127Z,442.00
2023-04-03T02:37:36.094Z,441.00
2023-04-03T02:38:36.083Z,445.00
2023-04-03T02:39:36.088Z,442.00
2023-04-03T02:40:36.531Z,442.00
2023-04-03T02:41:36.102Z,442.00
2023-04-03T02:42:36.053Z,443.00
2023-04-03T02:43:36.067Z,446.00
2023-04-03T02:44:36.045Z,450.00
2023-04-03T02:45:36.041Z,450.00
2023-04-03T02:46:36.069Z,449.00
2023-04-03T02:47:36.040Z,449.00
2023-04-03T02:48:36.021Z,447.00
2023-04-03T02:49:36.026Z,446.00
2023-04-03T02:50:36.220Z,448.00
2023-04-03T02:51:36.008Z,449.00
2023-04-03T02:52:36.031Z,452.00
2023-04-03T02:53:35.988Z,450.00
2023-04-03T02:54:35.981Z,449.00
2023-04-03T02:55:35.980Z,446.00
2023-04-03T02:56:35.968Z,446.00
2023-04-03T02:57:35.982Z,445.00
2023-04-03T02:58:35.968Z,446.00
2023-04-03T02:59:35.955Z,446.00
2023-04-03T03:00:36.265Z,448.00
2023-04-03T03:01:35.988Z,444.00
2023-04-03T03:02:35.970Z,444.00
2023-04-03T03:03:35.928Z,444.00
2023-04-03T03:04:35.982Z,445.00
2023-04-03T03:05:35.921Z,446.00
2023-04-03T03:06:35.910Z,447.00
2023-04-03T03:07:35.907Z,447.00
2023-04-03T03:08:35.928Z,449.00
2023-04-03T03:09:35.887Z,452.00
2023-04-03T03:10:36.219Z,451.00
2023-04-03T03:11:35.899Z,449.00
2023-04-03T03:12:35.914Z,451.00
2023-04-03T03:13:35.923Z,450.00
2023-04-03T03:14:35.945Z,453.00
2023-04-03T03:15:35.953Z,457.00
2023-04-03T03:16:35.976Z,458.00
2023-04-03T03:17:36.060Z,457.00
2023-04-03T03:18:36.006Z,456.00
2023-04-03T03:19:36.030Z,454.00
2023-04-03T03:20:36.249Z,457.00
2023-04-03T03:21:36.054Z,458.00
2023-04-03T03:22:36.076Z,455.00
2023-04-03T03:23:36.084Z,452.00
2023-04-03T03:24:36.126Z,451.00
2023-04-03T03:25:36.361Z,447.00
2023-04-03T03:26:36.138Z,447.00
2023-04-03T03:27:36.152Z,446.00
2023-04-03T03:28:36.168Z,444.00
2023-04-03T03:29:36.202Z,445.00
2023-04-03T03:30:36.198Z,447.00
2023-04-03T03:31:36.246Z,449.00
2023-04-03T03:32:36.254Z,448.00
2023-04-03T03:33:36.237Z,444.00
2023-04-03T03:34:36.963Z,444.00
2023-04-03T03:35:36.665Z,444.00
2023-04-03T03:36:36.966Z,443.00
2023-04-03T03:37:36.309Z,444.00
2023-04-03T03:38:36.329Z,443.00
2023-04-03T03:39:36.333Z,446.00
2023-04-03T03:40:36.445Z,448.00
2023-04-03T03:41:36.369Z,450.00
2023-04-03T03:42:36.381Z,450.00
2023-04-03T03:43:36.461Z,454.00
2023-04-03T03:44:36.400Z,454.00
2023-04-03T03:45:36.686Z,454.00
2023-04-03T03:46:36.445Z,453.00
2023-04-03T03:47:36.457Z,456.00
2023-04-03T03:48:36.475Z,455.00
2023-04-03T03:49:36.478Z,455.00
2023-04-03T03:50:36.509Z,453.00
2023-04-03T03:51:36.533Z,452.00
2023-04-03T03:52:36.540Z,450.00
2023-04-03T03:53:36.555Z,449.00
2023-04-03T03:54:36.572Z,451.00
2023-04-03T03:55:36.793Z,453.00
2023-04-03T03:56:36.831Z,457.00
2023-04-03T03:57:36.829Z,457.00
2023-04-03T03:58:36.809Z,455.00
2023-04-03T03:59:36.816Z,455.00
2023-04-03T04:00:36.807Z,456.00
2023-04-03T04:01:36.846Z,454.00
2023-04-03T04:02:37.041Z,452.00
2023-04-03T04:03:36.920Z,452.00
2023-04-03T04:04:36.817Z,450.00
2023-04-03T04:05:37.061Z,447.00
2023-04-03T04:06:36.814Z,446.00
2023-04-03T04:07:36.817Z,448.00
2023-04-03T04:08:36.830Z,449.00
2023-04-03T04:09:36.856Z,448.00
2023-04-03T04:10:36.866Z,448.00
2023-04-03T04:11:36.889Z,445.00
2023-04-03T04:12:36.938Z,446.00
2023-04-03T04:13:36.926Z,445.00
2023-04-03T04:14:36.943Z,449.00
2023-04-03T04:15:37.195Z,448.00
2023-04-03T04:16:37.024Z,446.00
2023-04-03T04:17:37.050Z,446.00
2023-04-03T04:18:37.013Z,446.00
2023-04-03T04:19:37.011Z,445.00
2023-04-03T04:20:37.039Z,447.00
2023-04-03T04:21:37.046Z,448.00
2023-04-03T04:22:37.068Z,448.00
2023-04-03T04:23:37.089Z,449.00
2023-04-03T04:24:38.524Z,448.00
2023-04-03T04:25:37.228Z,449.00
2023-04-03T04:26:37.099Z,449.00
2023-04-03T04:27:37.069Z,450.00
2023-04-03T04:28:37.094Z,451.00
2023-04-03T04:29:37.045Z,452.00
2023-04-03T04:30:37.042Z,452.00
2023-04-03T04:31:37.031Z,453.00
2023-04-03T04:32:37.065Z,453.00
2023-04-03T04:33:37.121Z,455.00
2023-04-03T04:34:37.060Z,454.00
2023-04-03T04:35:37.284Z,454.00
2023-04-03T04:36:37.086Z,450.00
2023-04-03T04:37:36.999Z,450.00
2023-04-03T04:38:37.012Z,453.00
2023-04-03T04:39:36.987Z,454.00
2023-04-03T04:40:36.982Z,455.00
2023-04-03T04:41:36.981Z,454.00
2023-04-03T04:42:36.970Z,452.00
2023-04-03T04:43:36.963Z,451.00
2023-04-03T04:44:36.976Z,448.00
2023-04-03T04:45:37.201Z,449.00
2023-04-03T04:46:37.047Z,449.00
2023-04-03T04:47:36.976Z,453.00
2023-04-03T04:48:36.921Z,454.00
2023-04-03T04:49:36.922Z,458.00
2023-04-03T04:50:36.915Z,459.00
2023-04-03T04:51:48.446Z,459.00
2023-04-03T04:52:36.904Z,457.00
2023-04-03T04:53:36.890Z,452.00
2023-04-03T04:54:36.884Z,452.00
2023-04-03T04:55:37.039Z,455.00
2023-04-03T04:56:36.893Z,453.00
2023-04-03T04:57:36.937Z,454.00
2023-04-03T04:58:36.859Z,456.00
2023-04-03T04:59:36.845Z,458.00
2023-04-03T05:00:36.889Z,459.00
2023-04-03T05:01:36.860Z,459.00
2023-04-03T05:02:36.862Z,461.00
2023-04-03T05:03:36.825Z,460.00
2023-04-03T05:04:36.886Z,462.00
2023-04-03T05:05:37.007Z,460.00
2023-04-03T05:06:36.810Z,458.00
2023-04-03T05:07:36.865Z,458.00
2023-04-03T05:08:36.801Z,459.00
2023-04-03T05:09:36.802Z,458.00
2023-04-03T05:10:36.787Z,454.00
2023-04-03T05:11:36.776Z,456.00
2023-04-03T05:12:36.777Z,457.00
2023-04-03T05:13:36.772Z,455.00
2023-04-03T05:14:36.776Z,456.00
2023-04-03T05:15:36.992Z,457.00
2023-04-03T05:16:36.832Z,460.00
2023-04-03T05:17:36.763Z,460.00
2023-04-03T05:18:37.645Z,461.00
2023-04-03T05:19:36.726Z,462.00
2023-04-03T05:20:37.514Z,464.00
2023-04-03T05:21:36.714Z,458.00
2023-04-03T05:22:36.693Z,459.00
2023-04-03T05:23:36.692Z,459.00
2023-04-03T05:24:36.684Z,463.00
2023-04-03T05:25:36.831Z,463.00
2023-04-03T05:26:36.678Z,461.00
2023-04-03T05:27:36.668Z,463.00
2023-04-03T05:28:36.654Z,462.00
2023-04-03T05:29:36.645Z,461.00
2023-04-03T05:30:36.640Z,462.00
2023-04-03T05:31:36.663Z,462.00
2023-04-03T05:32:36.737Z,461.00
2023-04-03T05:33:36.622Z,461.00
2023-04-03T05:34:36.614Z,461.00
2023-04-03T05:35:36.900Z,461.00
2023-04-03T05:36:36.600Z,459.00
2023-04-03T05:37:36.592Z,456.00
2023-04-03T05:38:36.580Z,458.00
2023-04-03T05:39:36.569Z,457.00
2023-04-03T05:40:36.567Z,457.00
2023-04-03T05:41:36.559Z,457.00
2023-04-03T05:42:36.563Z,458.00
2023-04-03T05:43:36.539Z,460.00
2023-04-03T05:44:36.535Z,460.00
2023-04-03T05:45:36.632Z,462.00
2023-04-03T05:46:36.566Z,460.00
2023-04-03T05:47:36.585Z,463.00
2023-04-03T05:48:36.619Z,462.00
2023-04-03T05:49:36.592Z,462.00
2023-04-03T05:50:36.604Z,462.00
2023-04-03T05:51:36.628Z,461.00
2023-04-03T05:52:36.622Z,461.00
2023-04-03T05:53:36.637Z,462.00
2023-04-03T05:54:36.651Z,459.00
2023-04-03T05:55:36.961Z,460.00
2023-04-03T05:56:36.684Z,455.00
2023-04-03T05:57:36.995Z,454.00
2023-04-03T05:58:36.695Z,453.00
2023-04-03T05:59:36.707Z,451.00
2023-04-03T06:00:36.719Z,451.00
2023-04-03T06:01:36.732Z,450.00
2023-04-03T06:02:36.849Z,451.00
2023-04-03T06:03:38.776Z,451.00
2023-04-03T06:04:36.923Z,453.00
2023-04-03T06:05:37.130Z,456.00
2023-04-03T06:06:36.738Z,457.00
2023-04-03T06:07:36.739Z,457.00
2023-04-03T06:08:36.740Z,455.00
2023-04-03T06:09:36.715Z,454.00
2023-04-03T06:10:36.968Z,454.00
2023-04-03T06:11:36.708Z,453.00
2023-04-03T06:12:36.729Z,451.00
2023-04-03T06:13:36.714Z,450.00
2023-04-03T06:14:36.702Z,450.00
2023-04-03T06:15:36.711Z,451.00
2023-04-03T06:16:39.360Z,451.00
2023-04-03T06:17:36.735Z,452.00
2023-04-03T06:18:36.666Z,449.00
2023-04-03T06:19:36.653Z,450.00
2023-04-03T06:20:37.202Z,448.00
2023-04-03T06:21:36.667Z,448.00
2023-04-03T06:22:36.629Z,450.00
2023-04-03T06:23:36.642Z,449.00
2023-04-03T06:24:36.613Z,449.00
2023-04-03T06:25:36.607Z,450.00
2023-04-03T06:26:36.603Z,448.00
2023-04-03T06:27:36.593Z,448.00
2023-04-03T06:28:36.590Z,450.00
2023-04-03T06:29:36.575Z,451.00
2023-04-03T06:30:36.880Z,449.00
2023-04-03T06:31:36.620Z,451.00
2023-04-03T06:32:36.588Z,454.00
2023-04-03T06:33:36.624Z,458.00
2023-04-03T06:34:36.557Z,460.00
2023-04-03T06:35:36.640Z,459.00
2023-04-03T06:36:36.588Z,458.00
2023-04-03T06:37:36.516Z,456.00
2023-04-03T06:38:36.508Z,452.00
2023-04-03T06:39:36.504Z,449.00
2023-04-03T06:40:36.748Z,447.00
2023-04-03T06:41:37.307Z,448.00
2023-04-03T06:42:36.501Z,448.00
2023-04-03T06:43:36.472Z,449.00
2023-04-03T06:44:36.465Z,449.00
2023-04-03T06:45:36.748Z,450.00
2023-04-03T06:46:36.530Z,450.00
2023-04-03T06:47:36.511Z,450.00
2023-04-03T06:48:36.442Z,451.00
2023-04-03T06:49:36.433Z,451.00
2023-04-03T06:50:36.432Z,451.00
2023-04-03T06:51:36.473Z,452.00
2023-04-03T06:52:36.453Z,454.00
2023-04-03T06:53:36.419Z,455.00
2023-04-03T06:54:36.408Z,456.00
2023-04-03T06:55:36.813Z,459.00
2023-04-03T06:56:36.447Z,456.00
2023-04-03T06:57:36.673Z,453.00
2023-04-03T06:58:36.489Z,454.00
2023-04-03T06:59:36.503Z,456.00
2023-04-03T07:00:36.622Z,453.00
2023-04-03T07:01:36.583Z,453.00
2023-04-03T07:02:36.592Z,454.00
2023-04-03T07:03:36.576Z,455.00
2023-04-03T07:04:36.638Z,457.00
2023-04-03T07:05:36.946Z,458.00
2023-04-03T07:06:36.629Z,458.00
2023-04-03T07:07:36.659Z,457.00
2023-04-03T07:08:36.690Z,457.00
2023-04-03T07:09:36.673Z,453.00
2023-04-03T07:10:36.679Z,454.00
2023-04-03T07:11:36.700Z,455.00
2023-04-03T07:12:36.715Z,456.00
2023-04-03T07:13:36.717Z,456.00
2023-04-03T07:14:36.722Z,455.00
2023-04-03T07:15:37.066Z,455.00
2023-04-03T07:16:36.888Z,454.00
2023-04-03T07:17:36.844Z,453.00
2023-04-03T07:18:37.147Z,452.00
2023-04-03T07:19:37.200Z,453.00
2023-04-03T07:20:37.179Z,453.00
2023-04-03T07:21:37.184Z,452.00
2023-04-03T07:22:37.195Z,452.00
2023-04-03T07:23:37.190Z,452.00
2023-04-03T07:24:37.208Z,450.00
2023-04-03T07:25:37.406Z,453.00
2023-04-03T07:26:37.202Z,452.00
2023-04-03T07:27:37.178Z,451.00
2023-04-03T07:28:37.255Z,451.00
2023-04-03T07:29:39.605Z,453.00
2023-04-03T07:30:37.202Z,455.00
2023-04-03T07:31:37.248Z,455.00
2023-04-03T07:32:37.256Z,454.00
2023-04-03T07:33:37.183Z,452.00
2023-04-03T07:34:37.181Z,447.00
2023-04-03T07:35:37.650Z,449.00
2023-04-03T07:36:37.191Z,451.00
2023-04-03T07:37:37.193Z,454.00
2023-04-03T07:38:37.184Z,452.00
2023-04-03T07:39:37.180Z,450.00
2023-04-03T07:40:37.219Z,451.00
2023-04-03T07:41:37.202Z,449.00
2023-04-03T07:42:37.147Z,451.00
2023-04-03T07:43:36.776Z,450.00
2023-04-03T07:44:36.767Z,450.00
2023-04-03T07:45:37.107Z,451.00
2023-04-03T07:46:36.751Z,454.00
2023-04-03T07:47:36.783Z,452.00
2023-04-03T07:48:36.762Z,453.00
2023-04-03T07:49:36.737Z,453.00
2023-04-03T07:50:36.726Z,452.00
2023-04-03T07:51:36.725Z,451.00
2023-04-03T07:52:36.717Z,450.00
2023-04-03T07:53:36.709Z,448.00
2023-04-03T07:54:36.702Z,449.00
2023-04-03T07:55:36.853Z,450.00
2023-04-03T07:56:36.714Z,447.00
2023-04-03T07:57:36.752Z,446.00
2023-04-03T07:58:36.670Z,449.00
2023-04-03T07:59:36.662Z,452.00
2023-04-03T08:00:36.663Z,453.00
2023-04-03T08:01:36.657Z,453.00
2023-04-03T08:02:36.664Z,453.00
2023-04-03T08:03:36.727Z,449.00
2023-04-03T08:04:36.684Z,448.00
2023-04-03T08:05:36.857Z,450.00
2023-04-03T08:06:45.848Z,449.00
2023-04-03T08:07:36.623Z,451.00
2023-04-03T08:08:36.610Z,451.00
2023-04-03T08:09:36.613Z,453.00
2023-04-03T08:10:36.601Z,453.00
2023-04-03T08:11:36.597Z,453.00
2023-04-03T08:12:36.637Z,454.00
2023-04-03T08:13:36.608Z,455.00
2023-04-03T08:14:36.586Z,454.00
2023-04-03T08:15:36.811Z,456.00
2023-04-03T08:16:37.233Z,456.00
2023-04-03T08:17:36.631Z,455.00
2023-04-03T08:18:36.548Z,454.00
2023-04-03T08:19:36.554Z,454.00
2023-04-03T08:20:36.543Z,453.00
2023-04-03T08:21:36.541Z,452.00
2023-04-03T08:22:36.542Z,449.00
2023-04-03T08:23:36.519Z,447.00
2023-04-03T08:24:37.689Z,450.00
2023-04-03T08:25:36.680Z,450.00
2023-04-03T08:26:36.504Z,447.00
2023-04-03T08:27:36.486Z,449.00
2023-04-03T08:28:36.509Z,452.00
2023-04-03T08:29:36.477Z,453.00
2023-04-03T08:30:36.492Z,453.00
2023-04-03T08:31:36.469Z,452.00
2023-04-03T08:32:36.497Z,455.00
2023-04-03T08:33:36.452Z,456.00
2023-04-03T08:34:36.443Z,459.00
2023-04-03T08:35:39.586Z,459.00
2023-04-03T08:36:36.465Z,458.00
2023-04-03T08:37:36.441Z,456.00
2023-04-03T08:38:36.418Z,456.00
2023-04-03T08:39:36.417Z,454.00
2023-04-03T08:40:36.409Z,450.00
2023-04-03T08:41:36.406Z,446.00
2023-04-03T08:42:36.382Z,447.00
2023-04-03T08:43:36.378Z,448.00
2023-04-03T08:44:37.345Z,449.00
2023-04-03T08:45:36.631Z,450.00
2023-04-03T08:46:36.521Z,451.00
2023-04-03T08:47:36.364Z,450.00
2023-04-03T08:48:36.358Z,450.00
2023-04-03T08:49:36.445Z,450.00
2023-04-03T08:50:36.470Z,446.00
2023-04-03T08:51:36.323Z,447.00
2023-04-03T08:52:36.612Z,450.00
2023-04-03T08:53:36.317Z,455.00
2023-04-03T08:54:36.337Z,455.00
2023-04-03T08:55:36.595Z,458.00
2023-04-03T08:56:36.300Z,456.00
2023-04-03T08:57:36.755Z,456.00
2023-04-03T08:58:36.278Z,458.00
2023-04-03T08:59:36.264Z,458.00
2023-04-03T09:00:36.378Z,458.00
2023-04-03T09:01:36.339Z,455.00
2023-04-03T09:02:36.281Z,455.00
2023-04-03T09:03:36.259Z,455.00
2023-04-03T09:04:36.233Z,455.00
2023-04-03T09:05:36.388Z,456.00
2023-04-03T09:06:36.639Z,454.00
2023-04-03T09:07:36.208Z,457.00
2023-04-03T09:08:36.200Z,455.00
2023-04-03T09:09:36.210Z,456.00
2023-04-03T09:10:36.463Z,456.00
2023-04-03T09:11:36.178Z,458.00
2023-04-03T09:12:36.620Z,463.00
2023-04-03T09:13:36.172Z,466.00
2023-04-03T09:14:36.161Z,465.00
2023-04-03T09:15:39.411Z,462.00
2023-04-03T09:16:36.264Z,456.00
2023-04-03T09:17:36.195Z,459.00
2023-04-03T09:18:36.126Z,458.00
2023-04-03T09:19:36.154Z,459.00
2023-04-03T09:20:36.402Z,458.00
2023-04-03T09:21:36.620Z,457.00
2023-04-03T09:22:41.954Z,455.00
2023-04-03T09:23:36.103Z,453.00
2023-04-03T09:24:36.090Z,454.00
2023-04-03T09:25:36.073Z,452.00
2023-04-03T09:26:36.069Z,453.00
2023-04-03T09:27:36.164Z,453.00
2023-04-03T09:28:42.865Z,455.00
2023-04-03T09:29:36.055Z,455.00
2023-04-03T09:30:36.345Z,456.00
2023-04-03T09:31:36.229Z,455.00
2023-04-03T09:32:36.343Z,455.00
2023-04-03T09:33:36.190Z,455.00
2023-04-03T09:34:36.197Z,455.00
2023-04-03T09:35:47.223Z,456.00
2023-04-03T09:36:36.187Z,458.00
2023-04-03T09:37:36.186Z,461.00
2023-04-03T09:38:36.187Z,466.00
2023-04-03T09:39:36.196Z,469.00
2023-04-03T09:40:36.596Z,469.00
2023-04-03T09:41:36.182Z,470.00
2023-04-03T09:42:36.182Z,469.00
2023-04-03T09:43:36.197Z,470.00
2023-04-03T09:44:36.190Z,468.00
2023-04-03T09:45:36.185Z,468.00
2023-04-03T09:46:36.216Z,469.00
2023-04-03T09:47:36.247Z,465.00
2023-04-03T09:48:36.303Z,465.00
2023-04-03T09:49:36.197Z,467.00
2023-04-03T09:50:36.329Z,466.00
2023-04-03T09:51:36.182Z,467.00
2023-04-03T09:52:37.291Z,467.00
2023-04-03T09:53:36.191Z,466.00
2023-04-03T09:54:36.196Z,465.00
2023-04-03T09:55:36.181Z,465.00
2023-04-03T09:56:36.188Z,461.00
2023-04-03T09:57:36.224Z,460.00
2023-04-03T09:58:49.087Z,463.00
2023-04-03T09:59:36.225Z,462.00
2023-04-03T10:00:36.490Z,462.00
2023-04-03T10:01:36.307Z,462.00
2023-04-03T10:02:36.263Z,462.00
2023-04-03T10:03:36.221Z,462.00
2023-04-03T10:04:36.384Z,461.00
2023-04-03T10:05:36.213Z,462.00
2023-04-03T10:06:36.184Z,464.00
2023-04-03T10:07:36.148Z,466.00
2023-04-03T10:08:36.646Z,468.00
2023-04-03T10:09:35.775Z,467.00
2023-04-03T10:10:35.892Z,466.00
2023-04-03T10:11:35.755Z,468.00
2023-04-03T10:12:35.748Z,467.00
2023-04-03T10:13:45.210Z,466.00
2023-04-03T10:14:35.804Z,465.00
2023-04-03T10:15:35.730Z,470.00
2023-04-03T10:16:35.740Z,470.00
2023-04-03T10:17:35.773Z,470.00
2023-04-03T10:18:35.710Z,470.00
2023-04-03T10:19:35.700Z,466.00
2023-04-03T10:20:35.828Z,467.00
2023-04-03T10:21:35.690Z,467.00
2023-04-03T10:22:35.688Z,466.00
2023-04-03T10:23:35.674Z,467.00
2023-04-03T10:24:35.670Z,466.00
2023-04-03T10:25:35.652Z,466.00
2023-04-03T10:26:35.645Z,465.00
2023-04-03T10:27:35.638Z,463.00
2023-04-03T10:28:35.634Z,462.00
2023-04-03T10:29:35.632Z,461.00
2023-04-03T10:30:36.028Z,460.00
2023-04-03T10:31:35.648Z,457.00
2023-04-03T10:32:35.629Z,461.00
2023-04-03T10:33:35.600Z,460.00
2023-04-03T10:34:35.590Z,461.00
2023-04-03T10:35:35.655Z,462.00
2023-04-03T10:36:35.701Z,463.00
2023-04-03T10:37:35.569Z,462.00
2023-04-03T10:38:35.563Z,464.00
2023-04-03T10:39:35.658Z,466.00
2023-04-03T10:40:35.654Z,465.00
2023-04-03T10:41:35.536Z,463.00
2023-04-03T10:42:35.528Z,466.00
2023-04-03T10:43:35.523Z,467.00
2023-04-03T10:44:35.516Z,463.00
2023-04-03T10:45:35.517Z,465.00
2023-04-03T10:46:35.594Z,464.00
2023-04-03T10:47:37.205Z,463.00
2023-04-03T10:48:35.482Z,463.00
2023-04-03T10:49:35.480Z,466.00
2023-04-03T10:50:35.851Z,470.00
2023-04-03T10:51:36.178Z,473.00
2023-04-03T10:52:35.586Z,474.00
2023-04-03T10:53:35.470Z,471.00
2023-04-03T10:54:35.445Z,469.00
2023-04-03T10:55:35.445Z,467.00
2023-04-03T10:56:35.432Z,465.00
2023-04-03T10:57:35.484Z,465.00
2023-04-03T10:58:35.679Z,462.00
2023-04-03T10:59:35.416Z,463.00
2023-04-03T11:00:35.815Z,463.00
2023-04-03T11:01:35.465Z,462.00
2023-04-03T11:02:35.464Z,462.00
2023-04-03T11:03:35.567Z,461.00
2023-04-03T11:04:35.393Z,464.00
2023-04-03T11:05:35.400Z,463.00
2023-04-03T11:06:35.385Z,463.00
2023-04-03T11:07:35.359Z,461.00
2023-04-03T11:08:35.554Z,460.00
2023-04-03T11:09:35.348Z,458.00
2023-04-03T11:10:35.337Z,458.00
2023-04-03T11:11:35.334Z,456.00
2023-04-03T11:12:35.325Z,455.00
2023-04-03T11:13:35.326Z,459.00
2023-04-03T11:14:35.312Z,457.00
2023-04-03T11:15:35.357Z,459.00
2023-04-03T11:16:43.692Z,458.00
2023-04-03T11:17:35.353Z,454.00
2023-04-03T11:18:35.286Z,454.00
2023-04-03T11:19:35.280Z,456.00
2023-04-03T11:20:35.680Z,455.00
2023-04-03T11:21:35.265Z,455.00
2023-04-03T11:22:35.265Z,456.00
2023-04-03T11:23:46.005Z,457.00
2023-04-03T11:24:35.381Z,458.00
2023-04-03T11:25:35.433Z,459.00
2023-04-03T11:26:35.241Z,461.00
2023-04-03T11:27:35.221Z,459.00
2023-04-03T11:28:35.263Z,459.00
2023-04-03T11:29:36.086Z,461.00
2023-04-03T11:30:35.220Z,461.00
2023-04-03T11:31:35.254Z,460.00
2023-04-03T11:32:35.274Z,461.00
2023-04-03T11:33:35.187Z,460.00
2023-04-03T11:34:35.173Z,460.00
2023-04-03T11:35:35.306Z,461.00
2023-04-03T11:36:37.646Z,460.00
2023-04-03T11:37:35.157Z,460.00
2023-04-03T11:38:35.150Z,460.00
2023-04-03T11:39:35.138Z,459.00
2023-04-03T11:40:35.253Z,459.00
2023-04-03T11:41:35.125Z,459.00
2023-04-03T11:42:35.215Z,458.00
2023-04-03T11:43:35.119Z,459.00
2023-04-03T11:44:35.143Z,460.00
2023-04-03T11:45:35.192Z,460.00
2023-04-03T11:46:34.131Z,462.00
2023-04-03T11:47:35.135Z,458.00
2023-04-03T11:48:35.129Z,457.00
2023-04-03T11:49:35.087Z,455.00
2023-04-03T11:50:35.077Z,456.00
2023-04-03T11:51:35.065Z,454.00
2023-04-03T11:52:35.059Z,453.00
2023-04-03T11:53:35.072Z,452.00
2023-04-03T11:54:42.104Z,454.00
2023-04-03T11:55:35.225Z,458.00
2023-04-03T11:56:35.172Z,460.00
2023-04-03T11:57:35.167Z,459.00
2023-04-03T11:58:35.030Z,460.00
2023-04-03T11:59:35.008Z,461.00
2023-04-03T12:00:35.010Z,461.00
2023-04-03T12:01:34.997Z,463.00
2023-04-03T12:02:47.520Z,466.00
2023-04-03T12:03:35.068Z,467.00
2023-04-03T12:04:35.030Z,464.00
2023-04-03T12:05:35.055Z,460.00
2023-04-03T12:06:34.963Z,459.00
2023-04-03T12:07:34.962Z,459.00
2023-04-03T12:08:34.970Z,459.00
2023-04-03T12:09:34.935Z,459.00
2023-04-03T12:10:34.965Z,458.00
2023-04-03T12:11:34.946Z,460.00
2023-04-03T12:12:35.069Z,461.00
2023-04-03T12:13:34.920Z,461.00
2023-04-03T12:14:34.912Z,465.00
2023-04-03T12:15:34.899Z,464.00
2023-04-03T12:16:34.913Z,464.00
2023-04-03T12:17:34.933Z,465.00
2023-04-03T12:18:34.876Z,465.00
2023-04-03T12:19:42.413Z,469.00
2023-04-03T12:20:34.867Z,466.00
2023-04-03T12:21:34.853Z,464.00
2023-04-03T12:22:34.849Z,465.00
2023-04-03T12:23:34.839Z,464.00
2023-04-03T12:24:34.834Z,461.00
2023-04-03T12:25:34.849Z,464.00
2023-04-03T12:26:42.031Z,464.00
2023-04-03T12:27:34.823Z,463.00
2023-04-03T12:28:34.937Z,464.00